createdAt,value
2019-04-06T00:00:03.916Z,33.80
2019-04-06T00:02:51.638Z,32.90
2019-04-06T00:05:37.439Z,33.80
2019-04-06T00:08:24.015Z,36.17
2019-04-06T00:11:10.243Z,34.30
2019-04-06T00:13:56.331Z,32.60
2019-04-06T00:16:43.794Z,32.93
2019-04-06T00:19:30.100Z,33.23
2019-04-06T00:22:15.989Z,32.07
2019-04-06T00:25:02.409Z,29.93
2019-04-06T00:27:49.057Z,33.30
2019-04-06T00:30:42.964Z,38.67
2019-04-06T00:33:28.786Z,29.00
2019-04-06T00:36:15.392Z,28.33
2019-04-06T00:39:01.377Z,30.53
2019-04-06T00:41:49.344Z,31.20
2019-04-06T00:44:35.752Z,31.20
2019-04-06T00:47:21.900Z,30.27
2019-04-06T00:50:08.264Z,30.40
2019-04-06T00:52:54.544Z,30.47
2019-04-06T00:55:40.323Z,31.70
2019-04-06T00:58:27.799Z,31.43
2019-04-06T01:01:14.074Z,33.40
2019-04-06T01:04:00.381Z,30.30
2019-04-06T01:06:46.183Z,31.57
2019-04-06T01:09:32.132Z,31.57
2019-04-06T01:12:18.361Z,32.03
2019-04-06T01:15:04.850Z,36.47
2019-04-06T01:17:50.864Z,29.47
2019-04-06T01:20:37.319Z,30.23
2019-04-06T01:23:23.650Z,36.50
2019-04-06T01:26:09.511Z,35.97
2019-04-06T01:28:55.421Z,32.93
2019-04-06T01:31:41.795Z,33.97
2019-04-06T01:34:27.484Z,33.70
2019-04-06T01:37:13.318Z,30.63
2019-04-06T01:39:59.204Z,29.67
2019-04-06T01:42:45.408Z,29.10
2019-04-06T01:45:31.782Z,29.30
2019-04-06T01:48:18.031Z,29.47
2019-04-06T01:51:03.770Z,29.93
2019-04-06T01:53:50.167Z,27.70
2019-04-06T01:56:35.946Z,28.10
2019-04-06T01:59:21.835Z,28.87
2019-04-06T02:02:20.561Z,27.70
2019-04-06T02:05:07.605Z,27.23
2019-04-06T02:07:53.868Z,27.70
2019-04-06T02:10:40.223Z,26.40
2019-04-06T02:13:26.035Z,28.10
2019-04-06T02:16:12.335Z,29.10
2019-04-06T02:18:58.148Z,27.43
2019-04-06T02:21:44.482Z,27.23
2019-04-06T02:24:30.712Z,26.67
2019-04-06T02:27:17.068Z,27.03
2019-04-06T02:30:23.267Z,27.00
2019-04-06T02:33:27.586Z,27.67
2019-04-06T02:36:25.840Z,27.03
2019-04-06T02:39:18.996Z,28.90
2019-04-06T02:42:09.542Z,28.67
2019-04-06T02:44:55.459Z,29.90
2019-04-06T02:47:41.708Z,27.77
2019-04-06T02:50:28.060Z,27.47
2019-04-06T02:53:14.038Z,24.70
2019-04-06T02:56:00.332Z,26.60
2019-04-06T02:58:46.184Z,26.50
2019-04-06T03:01:32.637Z,28.17
2019-04-06T03:04:19.095Z,25.87
2019-04-06T03:07:05.305Z,26.17
2019-04-06T03:09:51.706Z,27.43
2019-04-06T03:12:38.751Z,26.60
2019-04-06T03:15:24.637Z,26.77
2019-04-06T03:18:10.875Z,26.20
2019-04-06T03:20:56.652Z,24.90
2019-04-06T03:23:50.869Z,29.40
2019-04-06T03:26:31.006Z,26.17
2019-04-06T03:29:17.029Z,25.30
2019-04-06T03:32:03.300Z,25.33
2019-04-06T03:34:50.051Z,24.57
2019-04-06T03:37:36.284Z,25.00
2019-04-06T03:40:22.889Z,25.20
2019-04-06T03:43:08.909Z,26.20
2019-04-06T03:45:55.276Z,25.57
2019-04-06T03:48:41.196Z,25.53
2019-04-06T03:51:27.685Z,22.57
2019-04-06T03:54:13.747Z,22.63
2019-04-06T03:57:13.184Z,23.40
2019-04-06T03:59:47.653Z,22.00
2019-04-06T04:02:33.707Z,23.07
2019-04-06T04:05:20.163Z,23.17
2019-04-06T04:08:06.592Z,22.63
2019-04-06T04:10:52.662Z,22.80
2019-04-06T04:13:38.978Z,22.50
2019-04-06T04:16:24.643Z,22.73
2019-04-06T04:19:10.619Z,22.90
2019-04-06T04:21:56.292Z,23.27
2019-04-06T04:24:42.186Z,24.20
2019-04-06T04:27:30.317Z,21.90
2019-04-06T04:30:30.539Z,21.40
2019-04-06T04:33:04.067Z,21.57
2019-04-06T04:35:50.328Z,22.13
2019-04-06T04:38:36.375Z,22.77
2019-04-06T04:41:22.124Z,22.43
2019-04-06T04:44:08.110Z,23.10
2019-04-06T04:46:54.403Z,22.57
2019-04-06T04:49:40.367Z,23.47
2019-04-06T04:52:26.523Z,22.57
2019-04-06T04:55:12.379Z,23.73
2019-04-06T04:57:58.783Z,23.03
2019-04-06T05:00:44.628Z,21.67
2019-04-06T05:03:31.085Z,23.70
2019-04-06T05:06:17.251Z,21.47
2019-04-06T05:09:05.161Z,21.80
2019-04-06T05:11:50.863Z,20.80
2019-04-06T05:14:56.310Z,22.70
2019-04-06T05:17:42.495Z,22.97
2019-04-06T05:20:28.799Z,22.03
2019-04-06T05:23:14.804Z,22.30
2019-04-06T05:26:01.042Z,23.37
2019-04-06T05:28:46.971Z,24.23
2019-04-06T05:31:33.482Z,24.27
2019-04-06T05:34:19.267Z,25.10
2019-04-06T05:37:05.081Z,22.67
2019-04-06T05:39:51.346Z,23.97
2019-04-06T05:42:37.763Z,24.20
2019-04-06T05:45:23.943Z,23.20
2019-04-06T05:48:10.191Z,23.40
2019-04-06T05:50:56.020Z,23.87
2019-04-06T05:53:42.043Z,23.67
2019-04-06T05:56:28.150Z,25.20
2019-04-06T05:59:14.355Z,24.80
2019-04-06T06:02:00.807Z,24.90
2019-04-06T06:04:47.036Z,24.20
2019-04-06T06:07:33.045Z,24.70
2019-04-06T06:10:19.339Z,23.83
2019-04-06T06:13:05.228Z,23.47
2019-04-06T06:15:51.057Z,25.00
2019-04-06T06:18:36.796Z,24.27
2019-04-06T06:21:22.583Z,25.00
2019-04-06T06:24:08.520Z,24.43
2019-04-06T06:26:54.771Z,24.73
2019-04-06T06:29:40.767Z,24.13
2019-04-06T06:32:27.127Z,24.47
2019-04-06T06:35:13.398Z,24.27
2019-04-06T06:37:59.206Z,23.57
2019-04-06T06:40:45.535Z,25.80
2019-04-06T06:43:32.738Z,24.70
2019-04-06T06:46:18.659Z,22.83
2019-04-06T06:49:04.882Z,23.80
2019-04-06T06:51:50.615Z,24.83
2019-04-06T06:54:36.710Z,21.77
2019-04-06T06:57:22.470Z,23.53
2019-04-06T07:00:08.612Z,25.23
2019-04-06T07:02:54.707Z,23.27
2019-04-06T07:05:40.940Z,24.70
2019-04-06T07:08:26.791Z,24.07
2019-04-06T07:11:12.664Z,24.50
2019-04-06T07:13:58.448Z,22.53
2019-04-06T07:16:44.796Z,24.23
2019-04-06T07:19:32.036Z,23.40
2019-04-06T07:22:18.312Z,23.37
2019-04-06T07:25:04.837Z,23.43
2019-04-06T07:27:51.040Z,23.03
2019-04-06T07:30:36.863Z,23.00
2019-04-06T07:33:23.206Z,23.27
2019-04-06T07:36:09.174Z,24.23
2019-04-06T07:38:55.363Z,24.67
2019-04-06T07:41:41.054Z,22.73
2019-04-06T07:44:26.935Z,22.57
2019-04-06T07:47:12.959Z,22.83
2019-04-06T07:49:59.122Z,22.23
2019-04-06T07:52:45.337Z,22.90
2019-04-06T07:55:31.649Z,22.73
2019-04-06T07:58:17.599Z,23.47
2019-04-06T08:01:03.905Z,21.97
2019-04-06T08:03:50.121Z,23.63
2019-04-06T08:06:36.395Z,22.67
2019-04-06T08:09:22.367Z,21.90
2019-04-06T08:12:08.780Z,20.60
2019-04-06T08:14:57.299Z,20.27
2019-04-06T08:17:43.038Z,20.87
2019-04-06T08:20:28.971Z,19.30
2019-04-06T08:23:15.375Z,19.33
2019-04-06T08:26:01.553Z,18.80
2019-04-06T08:28:58.927Z,18.70
2019-04-06T08:31:35.540Z,18.43
2019-04-06T08:34:22.009Z,19.33
2019-04-06T08:37:08.179Z,18.60
2019-04-06T08:39:54.086Z,19.17
2019-04-06T08:42:40.595Z,18.90
2019-04-06T08:45:26.907Z,17.97
2019-04-06T08:48:12.875Z,17.70
2019-04-06T08:50:59.264Z,17.90
2019-04-06T08:53:45.209Z,17.30
2019-04-06T08:56:31.319Z,17.87
2019-04-06T08:59:17.140Z,18.33
2019-04-06T09:02:03.387Z,16.27
2019-04-06T09:04:49.615Z,16.87
2019-04-06T09:07:35.579Z,15.83
2019-04-06T09:10:21.487Z,16.40
2019-04-06T09:13:07.923Z,15.90
2019-04-06T09:15:53.899Z,15.90
2019-04-06T09:18:40.100Z,15.60
2019-04-06T09:21:26.509Z,15.77
2019-04-06T09:25:34.243Z,16.07
2019-04-06T09:28:20.520Z,15.80
2019-04-06T09:31:06.662Z,16.90
2019-04-06T09:33:52.412Z,16.13
2019-04-06T09:36:38.342Z,16.63
2019-04-06T09:39:24.113Z,16.63
2019-04-06T09:42:10.119Z,15.80
2019-04-06T09:45:15.295Z,17.20
2019-04-06T09:48:35.988Z,16.77
2019-04-06T09:51:31.498Z,17.80
2019-04-06T09:54:35.823Z,17.20
2019-04-06T09:57:31.373Z,17.63
2019-04-06T10:00:31.824Z,17.80
2019-04-06T10:03:55.499Z,17.40
2019-04-06T10:07:03.391Z,17.20
2019-04-06T10:10:15.042Z,17.60
2019-04-06T10:13:21.004Z,16.87
2019-04-06T10:16:14.910Z,16.80
2019-04-06T10:19:12.874Z,17.60
2019-04-06T10:22:16.973Z,18.80
2019-04-06T10:25:25.814Z,18.53
2019-04-06T10:28:29.853Z,18.23
2019-04-06T10:31:29.862Z,17.30
2019-04-06T10:34:40.547Z,17.60
2019-04-06T10:37:35.446Z,18.93
2019-04-06T10:40:41.136Z,17.33
2019-04-06T10:43:37.695Z,17.10
2019-04-06T10:46:37.128Z,16.97
2019-04-06T10:49:51.771Z,18.63
2019-04-06T10:52:52.023Z,17.87
2019-04-06T10:56:08.562Z,17.00
2019-04-06T10:59:14.455Z,16.97
2019-04-06T11:02:18.663Z,17.23
2019-04-06T11:05:10.817Z,17.40
2019-04-06T11:08:10.994Z,17.20
2019-04-06T11:11:28.412Z,16.20
2019-04-06T11:14:23.855Z,16.60
2019-04-06T11:17:28.035Z,18.83
2019-04-06T11:20:34.303Z,18.07
2019-04-06T11:23:31.644Z,17.43
2019-04-06T11:26:33.599Z,19.80
2019-04-06T11:29:39.253Z,18.23
2019-04-06T11:32:45.246Z,18.37
2019-04-06T11:36:08.808Z,17.73
2019-04-06T11:39:13.798Z,18.67
2019-04-06T11:42:18.260Z,17.63
2019-04-06T11:45:10.671Z,17.90
2019-04-06T11:48:14.939Z,16.83
2019-04-06T11:51:35.544Z,18.73
2019-04-06T11:54:48.242Z,19.00
2019-04-06T11:57:55.519Z,17.63
2019-04-06T12:01:01.305Z,17.87
2019-04-06T12:04:19.575Z,19.83
2019-04-06T12:07:31.283Z,19.13
2019-04-06T12:10:28.569Z,19.90
2019-04-06T12:13:23.255Z,19.07
2019-04-06T12:16:20.570Z,18.93
2019-04-06T12:19:27.390Z,18.97
2019-04-06T12:22:22.364Z,19.13
2019-04-06T12:25:21.867Z,18.60
2019-04-06T12:28:20.916Z,18.83
2019-04-06T12:31:24.317Z,17.97
2019-04-06T12:34:20.250Z,17.30
2019-04-06T12:37:21.610Z,17.53
2019-04-06T12:40:17.363Z,16.70
2019-04-06T12:43:31.041Z,17.80
2019-04-06T12:46:42.339Z,17.07
2019-04-06T12:49:36.635Z,18.50
2019-04-06T12:52:39.219Z,17.63
2019-04-06T12:55:37.684Z,18.20
2019-04-06T12:58:40.736Z,18.40
2019-04-06T13:01:39.344Z,18.50
2019-04-06T13:04:47.462Z,18.43
2019-04-06T13:07:51.448Z,19.47
2019-04-06T13:10:55.322Z,18.57
2019-04-06T13:13:57.133Z,17.87
2019-04-06T13:16:51.855Z,18.97
2019-04-06T13:19:49.988Z,18.23
2019-04-06T13:22:58.406Z,18.20
2019-04-06T13:25:55.258Z,17.13
2019-04-06T13:29:00.416Z,17.47
2019-04-06T13:32:05.035Z,17.20
2019-04-06T13:35:13.618Z,16.90
2019-04-06T13:38:34.339Z,18.37
2019-04-06T13:41:35.547Z,17.80
2019-04-06T13:44:47.013Z,18.20
2019-04-06T13:47:58.112Z,17.40
2019-04-06T13:50:49.685Z,17.20
2019-04-06T13:54:13.373Z,17.70
2019-04-06T13:57:12.096Z,16.60
2019-04-06T14:00:35.843Z,17.13
2019-04-06T14:03:35.999Z,19.17
2019-04-06T14:06:41.583Z,17.77
2019-04-06T14:09:39.539Z,18.10
2019-04-06T14:12:45.584Z,18.10
2019-04-06T14:15:49.371Z,17.73
2019-04-06T14:18:53.525Z,17.13
2019-04-06T14:22:01.983Z,19.07
2019-04-06T14:25:10.484Z,21.03
2019-04-06T14:28:09.736Z,18.57
2019-04-06T14:31:27.445Z,18.70
2019-04-06T14:34:23.278Z,18.50
2019-04-06T14:37:38.126Z,18.57
2019-04-06T14:40:37.255Z,18.50
2019-04-06T14:43:54.723Z,17.80
2019-04-06T14:46:56.743Z,18.40
2019-04-06T14:49:55.965Z,18.13
2019-04-06T14:52:52.847Z,18.10
2019-04-06T14:55:59.568Z,18.87
2019-04-06T14:58:55.013Z,18.87
2019-04-06T15:02:09.862Z,19.40
2019-04-06T15:05:08.055Z,18.63
2019-04-06T15:08:02.928Z,20.20
2019-04-06T15:11:08.905Z,19.30
2019-04-06T15:14:23.384Z,20.50
2019-04-06T15:17:30.219Z,19.40
2019-04-06T15:20:21.869Z,19.90
2019-04-06T15:23:17.260Z,19.83
2019-04-06T15:26:23.060Z,19.70
2019-04-06T15:29:27.488Z,20.67
2019-04-06T15:32:41.492Z,20.70
2019-04-06T15:35:36.247Z,22.53
2019-04-06T15:38:53.480Z,21.40
2019-04-06T15:41:59.421Z,20.00
2019-04-06T15:45:15.231Z,20.93
2019-04-06T15:48:40.097Z,23.30
2019-04-06T15:52:11.048Z,20.53
2019-04-06T15:55:05.727Z,21.07
2019-04-06T15:58:14.896Z,20.67
2019-04-06T16:01:36.295Z,21.20
2019-04-06T16:04:39.004Z,22.20
2019-04-06T16:07:45.004Z,22.07
2019-04-06T16:10:52.376Z,20.60
2019-04-06T16:13:58.035Z,21.40
2019-04-06T16:17:12.608Z,21.97
2019-04-06T16:20:27.553Z,21.53
2019-04-06T16:23:37.039Z,20.03
2019-04-06T16:26:42.564Z,22.13
2019-04-06T16:29:46.810Z,22.30
2019-04-06T16:32:41.898Z,20.20
2019-04-06T16:35:53.721Z,21.10
2019-04-06T16:38:58.283Z,21.53
2019-04-06T16:42:09.008Z,20.30
2019-04-06T16:45:10.859Z,22.40
2019-04-06T16:48:22.482Z,21.53
2019-04-06T16:51:22.798Z,22.30
2019-04-06T16:54:28.766Z,21.93
2019-04-06T16:57:49.142Z,22.77
2019-04-06T17:00:59.816Z,21.80
2019-04-06T17:03:52.438Z,21.93
2019-04-06T17:06:58.051Z,22.90
2019-04-06T17:10:21.880Z,21.07
2019-04-06T17:13:34.357Z,21.33
2019-04-06T17:16:43.093Z,21.50
2019-04-06T17:19:44.073Z,23.13
2019-04-06T17:22:52.683Z,20.80
2019-04-06T17:25:58.412Z,20.30
2019-04-06T17:29:12.823Z,21.10
2019-04-06T17:32:18.325Z,21.70
2019-04-06T17:35:19.704Z,21.03
2019-04-06T17:38:15.866Z,21.63
2019-04-06T17:41:11.374Z,20.97
2019-04-06T17:44:15.403Z,21.20
2019-04-06T17:47:19.077Z,20.37
2019-04-06T17:50:17.863Z,20.20
2019-04-06T17:53:29.013Z,20.27
2019-04-06T17:56:30.727Z,20.83
2019-04-06T17:59:54.540Z,20.23
2019-04-06T18:02:59.100Z,28.80
2019-04-06T18:06:03.632Z,22.43
2019-04-06T18:09:00.181Z,23.33
2019-04-06T18:11:53.412Z,34.37
2019-04-06T18:14:39.529Z,45.73
2019-04-06T18:17:25.523Z,22.60
2019-04-06T18:20:11.675Z,21.63
2019-04-06T18:22:58.178Z,22.00
2019-04-06T18:25:44.636Z,21.67
2019-04-06T18:28:31.748Z,20.37
2019-04-06T18:31:24.795Z,20.90
2019-04-06T18:34:11.787Z,20.40
2019-04-06T18:37:35.753Z,19.90
2019-04-06T18:40:23.835Z,21.53
2019-04-06T18:43:09.903Z,20.67
2019-04-06T18:45:55.738Z,20.60
2019-04-06T18:48:42.051Z,20.53
2019-04-06T18:51:28.383Z,19.53
2019-04-06T18:54:14.560Z,20.70
2019-04-06T18:57:01.433Z,20.37
2019-04-06T18:59:47.856Z,20.37
2019-04-06T19:02:33.595Z,19.90
2019-04-06T19:05:19.481Z,20.43
2019-04-06T19:08:05.259Z,19.65
2019-04-06T19:10:52.563Z,90.32
2019-04-06T19:13:42.732Z,26.63
2019-04-06T19:16:29.535Z,21.20
2019-04-06T19:19:15.696Z,19.53
2019-04-06T19:22:01.694Z,22.50
2019-04-06T19:24:48.767Z,21.87
2019-04-06T19:27:36.387Z,21.17
2019-04-06T19:30:24.273Z,19.73
2019-04-06T19:33:22.342Z,20.20
2019-04-06T19:35:58.763Z,19.90
2019-04-06T19:38:45.167Z,20.57
2019-04-06T19:41:31.713Z,19.80
2019-04-06T19:44:17.639Z,18.30
2019-04-06T19:47:04.208Z,21.00
2019-04-06T19:49:51.411Z,20.40
2019-04-06T19:52:37.632Z,18.53
2019-04-06T19:55:24.540Z,19.37
2019-04-06T19:58:10.780Z,20.40
2019-04-06T20:00:57.434Z,22.50
2019-04-06T20:03:43.533Z,21.23
2019-04-06T20:06:30.076Z,19.37
2019-04-06T20:09:16.380Z,19.03
2019-04-06T20:12:06.936Z,18.90
2019-04-06T20:14:50.463Z,18.73
2019-04-06T20:17:36.811Z,19.20
2019-04-06T20:20:23.243Z,18.90
2019-04-06T20:23:09.534Z,18.80
2019-04-06T20:25:55.949Z,18.53
2019-04-06T20:28:43.483Z,18.10
2019-04-06T20:31:30.463Z,17.70
2019-04-06T20:34:16.844Z,18.13
2019-04-06T20:37:03.625Z,18.07
2019-04-06T20:39:50.201Z,18.17
2019-04-06T20:42:36.904Z,17.40
2019-04-06T20:45:24.617Z,18.07
2019-04-06T20:48:10.931Z,18.37
2019-04-06T20:50:57.115Z,17.03
2019-04-06T20:53:44.196Z,17.30
2019-04-06T20:56:30.467Z,17.33
2019-04-06T20:59:16.748Z,16.40
2019-04-06T21:02:04.454Z,16.37
2019-04-06T21:04:50.659Z,16.30
2019-04-06T21:07:37.057Z,16.43
2019-04-06T21:10:24.994Z,17.20
2019-04-06T21:13:11.328Z,16.33
2019-04-06T21:15:57.705Z,16.70
2019-04-06T21:18:44.483Z,17.20
2019-04-06T21:21:31.417Z,16.57
2019-04-06T21:24:18.127Z,15.43
2019-04-06T21:27:04.533Z,16.30
2019-04-06T21:29:50.880Z,16.17
2019-04-06T21:32:37.195Z,15.63
2019-04-06T21:35:23.592Z,16.67
2019-04-06T21:38:10.448Z,16.23
2019-04-06T21:40:57.033Z,16.20
2019-04-06T21:43:44.560Z,15.93
2019-04-06T21:46:31.417Z,15.53
2019-04-06T21:49:17.863Z,16.20
2019-04-06T21:52:04.922Z,16.10
2019-04-06T21:54:51.179Z,16.23
2019-04-06T21:57:37.731Z,16.70
2019-04-06T22:00:38.410Z,15.43
2019-04-06T22:03:26.918Z,16.30
2019-04-06T22:06:13.171Z,16.23
2019-04-06T22:08:59.269Z,15.87
2019-04-06T22:11:45.668Z,15.80
2019-04-06T22:14:31.939Z,15.87
2019-04-06T22:17:18.687Z,15.70
2019-04-06T22:20:04.864Z,15.23
2019-04-06T22:22:51.045Z,14.90
2019-04-06T22:25:36.897Z,15.87
2019-04-06T22:28:23.207Z,15.77
2019-04-06T22:31:09.939Z,15.70
2019-04-06T22:33:55.739Z,15.20
2019-04-06T22:36:41.570Z,15.70
2019-04-06T22:39:28.371Z,15.27
2019-04-06T22:42:14.751Z,14.90
2019-04-06T22:45:01.423Z,15.73
2019-04-06T22:47:47.738Z,15.43
2019-04-06T22:50:33.791Z,14.87
2019-04-06T22:53:20.106Z,15.57
2019-04-06T22:56:06.580Z,16.70
2019-04-06T22:58:52.958Z,15.87
2019-04-06T23:01:40.351Z,16.97
2019-04-06T23:04:47.538Z,15.23
2019-04-06T23:07:29.258Z,15.60
2019-04-06T23:10:15.818Z,16.13
2019-04-06T23:13:01.948Z,15.80
2019-04-06T23:15:48.832Z,15.37
2019-04-06T23:18:34.875Z,14.23
2019-04-06T23:21:21.459Z,15.57
2019-04-06T23:24:08.368Z,14.90
2019-04-06T23:26:54.863Z,14.37
2019-04-06T23:29:42.748Z,14.77
2019-04-06T23:32:29.776Z,14.70
2019-04-06T23:35:15.864Z,14.27
2019-04-06T23:38:02.143Z,14.80
2019-04-06T23:40:48.746Z,14.53
2019-04-06T23:43:34.858Z,14.60
2019-04-06T23:46:20.880Z,14.60
2019-04-06T23:49:07.755Z,14.47
2019-04-06T23:51:54.336Z,14.57
2019-04-06T23:54:40.387Z,15.27
2019-04-06T23:57:26.590Z,14.33
